Time;durP1;ratioP1;P1;durP2;ratioP2;P2;SDS_P1;SDS_P2;PMS_P1;PMS_P2;Temp;Humidity;BMP_temperature;BMP_pressure;BME280_temperature;BME280_humidity;BME280_pressure;Samples;Min_cycle;Max_cycle;Signal;HPM_P1;HPM_P2
2021/05/01 00:01:41;;;;;;;35.83;28.30;;;;;;;6.60;68.62;99415.91;5106302;28;20032;-71
2021/05/01 00:04:07;;;;;;;41.17;33.85;;;;;;;6.52;69.46;99417.97;5103576;28;20418;-71
2021/05/01 00:06:32;;;;;;;37.22;30.77;;;;;;;6.49;68.92;99417.22;5097060;28;20093;-72
2021/05/01 00:08:57;;;;;;;44.55;32.80;;;;;;;6.46;68.90;99412.97;5093095;28;20046;-72
2021/05/01 00:11:23;;;;;;;38.33;30.35;;;;;;;6.43;69.09;99413.94;5091446;28;20428;-72
2021/05/01 00:13:50;;;;;;;40.35;32.80;;;;;;;6.40;68.94;99410.59;5079008;28;20036;-72
2021/05/01 00:16:15;;;;;;;40.00;32.08;;;;;;;6.34;69.37;99409.03;5071167;28;20086;-72
2021/05/01 00:18:40;;;;;;;38.90;31.60;;;;;;;6.27;69.44;99404.94;5071438;28;20033;-71
2021/05/01 00:21:06;;;;;;;41.95;33.97;;;;;;;6.26;69.06;99407.63;5087302;28;20029;-72
2021/05/01 00:23:31;;;;;;;36.55;29.48;;;;;;;6.19;69.81;99410.47;5053774;28;20040;-72
2021/05/01 00:25:58;;;;;;;38.22;28.95;;;;;;;6.16;69.89;99402.75;5076789;28;20044;-72
2021/05/01 00:28:24;;;;;;;37.15;30.67;;;;;;;6.15;69.55;99410.63;5080630;28;20028;-72
2021/05/01 00:30:49;;;;;;;35.85;26.95;;;;;;;6.09;69.45;99414.34;5077518;28;20131;-72
2021/05/01 00:33:15;;;;;;;43.00;34.17;;;;;;;6.02;70.04;99412.88;5058579;28;20055;-72
2021/05/01 00:35:42;;;;;;;37.45;31.90;;;;;;;5.96;70.36;99405.25;5074111;28;20109;-71
2021/05/01 00:38:08;;;;;;;41.10;33.63;;;;;;;5.93;69.87;99406.19;5068693;28;20634;-71
2021/05/01 00:40:33;;;;;;;36.33;30.08;;;;;;;5.88;70.05;99404.63;5069970;28;20083;-70
2021/05/01 00:42:58;;;;;;;44.28;34.22;;;;;;;5.84;70.31;99403.06;5069365;28;20115;-70
2021/05/01 00:45:24;;;;;;;42.28;30.38;;;;;;;5.82;70.48;99405.72;5067950;28;20031;-70
2021/05/01 00:47:49;;;;;;;42.00;35.45;;;;;;;5.79;70.69;99408.44;5069359;28;20047;-70
2021/05/01 00:50:15;;;;;;;48.00;35.80;;;;;;;5.74;71.33;99403.38;5069668;28;20499;-70
2021/05/01 00:52:41;;;;;;;49.13;32.80;;;;;;;5.73;70.83;99406.03;5070149;28;20032;-71
2021/05/01 00:55:08;;;;;;;45.92;32.30;;;;;;;5.66;70.57;99409.75;5069184;28;20025;-72
2021/05/01 00:57:36;;;;;;;49.83;35.40;;;;;;;5.52;70.72;99400.66;5069227;28;20055;-71
2021/05/01 01:00:12;;;;;;;40.53;34.35;;;;;;;5.43;71.09;99403.59;5069314;28;20067;-71
2021/05/01 01:02:38;;;;;;;43.47;34.33;;;;;;;5.37;71.35;99406.41;5047212;28;20044;-71
2021/05/01 01:05:03;;;;;;;40.08;33.35;;;;;;;5.30;71.41;99403.16;5069086;28;20037;-71
2021/05/01 01:07:29;;;;;;;44.05;32.70;;;;;;;5.25;71.46;99399.84;5069430;28;20082;-71
2021/05/01 01:09:55;;;;;;;44.90;33.47;;;;;;;5.24;71.16;99395.53;5069406;28;20054;-72
2021/05/01 01:12:20;;;;;;;48.20;36.47;;;;;;;5.18;71.41;99398.34;5069482;28;20067;-72
2021/05/01 01:14:46;;;;;;;42.20;31.75;;;;;;;5.10;71.99;99398.59;5073688;28;20031;-72
2021/05/01 01:17:12;;;;;;;44.00;35.83;;;;;;;5.03;71.74;99394.47;5079721;28;20040;-71
2021/05/01 01:19:38;;;;;;;37.67;30.55;;;;;;;4.94;71.84;99395.63;5071544;28;20024;-71
2021/05/01 01:22:13;;;;;;;43.03;32.95;;;;;;;4.90;72.24;99398.41;5087792;28;20036;-71
2021/05/01 01:24:39;;;;;;;45.22;35.72;;;;;;;4.83;72.38;99397.75;5078904;28;20036;-70
2021/05/01 01:27:06;;;;;;;47.38;36.13;;;;;;;4.80;72.09;99397.84;5067576;28;20166;-72
2021/05/01 01:29:32;;;;;;;45.47;33.35;;;;;;;4.79;72.35;99396.13;5068479;28;20094;-73
2021/05/01 01:31:57;;;;;;;46.88;38.03;;;;;;;4.73;72.40;99398.94;5069422;28;20561;-72
2021/05/01 01:34:23;;;;;;;51.53;38.40;;;;;;;4.66;72.71;99402.66;5068995;28;20036;-72
2021/05/01 01:36:48;;;;;;;56.63;40.17;;;;;;;4.65;72.73;99400.91;5069164;28;20068;-71
2021/05/01 01:39:13;;;;;;;51.58;37.20;;;;;;;4.58;73.21;99402.00;5068538;28;20102;-71
2021/05/01 01:41:39;;;;;;;46.97;36.83;;;;;;;4.52;72.62;99403.91;5069031;28;20043;-71
2021/05/01 01:44:05;;;;;;;41.25;29.20;;;;;;;4.40;72.64;99403.44;5071475;28;20040;-72
2021/05/01 01:46:30;;;;;;;47.13;35.50;;;;;;;4.26;73.05;99396.88;5072827;28;20035;-73
2021/05/01 01:48:55;;;;;;;51.33;41.25;;;;;;;4.22;73.45;99397.00;5071481;28;20036;-74
2021/05/01 01:51:21;;;;;;;51.28;42.75;;;;;;;4.23;73.50;99406.53;5073018;28;20036;-75
2021/05/01 01:53:46;;;;;;;48.80;35.25;;;;;;;4.23;73.77;99403.94;5072734;28;20041;-74
2021/05/01 01:56:11;;;;;;;50.63;38.92;;;;;;;4.25;73.01;99404.75;5072553;28;20040;-74
2021/05/01 01:58:37;;;;;;;48.75;37.03;;;;;;;4.25;73.38;99399.53;5072763;28;20033;-75
2021/05/01 02:01:03;;;;;;;45.05;36.42;;;;;;;4.24;73.35;99403.91;5072497;28;20067;-75
2021/05/01 02:03:29;;;;;;;49.75;36.63;;;;;;;4.22;73.41;99400.47;5073249;28;20037;-74
2021/05/01 02:05:54;;;;;;;48.35;34.95;;;;;;;4.19;73.25;99400.56;5073313;28;20034;-73
2021/05/01 02:08:20;;;;;;;53.03;39.38;;;;;;;4.17;73.00;99404.13;5074316;28;20033;-73
2021/05/01 02:10:46;;;;;;;55.58;44.17;;;;;;;4.08;73.72;99400.88;5054691;28;20056;-72
2021/05/01 02:13:11;;;;;;;47.72;37.17;;;;;;;4.04;73.62;99390.59;5072457;28;20067;-75
2021/05/01 02:15:36;;;;;;;50.30;39.67;;;;;;;4.02;73.63;99397.59;5071721;28;20432;-75
2021/05/01 02:18:03;;;;;;;45.50;35.10;;;;;;;3.98;73.55;99386.38;5072449;28;20054;-75
2021/05/01 02:20:32;;;;;;;48.25;35.88;;;;;;;3.95;73.81;99391.69;5076872;28;20093;-74
2021/05/01 02:22:58;;;;;;;47.17;36.17;;;;;;;3.95;74.36;99394.31;5078438;28;20115;-75
2021/05/01 02:25:26;;;;;;;49.20;38.08;;;;;;;3.93;74.13;99393.50;5091275;28;20115;-75
2021/05/01 02:27:52;;;;;;;52.70;39.97;;;;;;;3.93;74.26;99387.41;5092400;28;20038;-75
2021/05/01 02:30:20;;;;;;;55.88;44.05;;;;;;;3.88;74.47;99392.75;5076173;28;20040;-75
2021/05/01 02:32:46;;;;;;;57.53;39.60;;;;;;;3.79;73.92;99382.59;5091804;28;20028;-74
2021/05/01 02:35:15;;;;;;;54.17;39.08;;;;;;;3.72;73.81;99394.13;5091926;28;20970;-75
2021/05/01 02:37:41;;;;;;;49.58;37.50;;;;;;;3.65;73.94;99391.66;5092043;28;20028;-75
2021/05/01 02:40:09;;;;;;;47.03;35.35;;;;;;;3.64;73.66;99391.69;5091575;28;20040;-75
2021/05/01 02:42:34;;;;;;;48.55;38.65;;;;;;;3.58;73.94;99392.72;5091548;28;20032;-75
2021/05/01 02:45:00;;;;;;;51.15;39.83;;;;;;;3.55;73.71;99389.34;5091870;28;20089;-74
2021/05/01 02:47:25;;;;;;;52.70;41.40;;;;;;;3.49;74.03;99379.94;5092042;28;20119;-74
2021/05/01 02:49:51;;;;;;;48.78;38.00;;;;;;;3.46;74.43;99385.22;5092592;28;20074;-75
2021/05/01 02:52:16;;;;;;;52.08;41.13;;;;;;;3.46;74.67;99381.78;5092189;28;20059;-74
2021/05/01 02:54:41;;;;;;;54.72;41.75;;;;;;;3.41;74.79;99384.50;5090123;28;20048;-73
2021/05/01 02:57:07;;;;;;;49.90;35.40;;;;;;;3.39;74.68;99375.88;5091102;28;20036;-73
2021/05/01 02:59:32;;;;;;;46.55;35.13;;;;;;;3.40;74.19;99382.81;5091812;28;20085;-72
2021/05/01 03:01:58;;;;;;;45.05;34.63;;;;;;;3.37;74.40;99375.94;5091716;28;20024;-72
2021/05/01 03:04:23;;;;;;;56.08;42.20;;;;;;;3.34;74.13;99365.56;5073383;28;20054;-72
2021/05/01 03:06:49;;;;;;;51.55;38.92;;;;;;;3.30;74.23;99368.28;5091853;28;20036;-71
2021/05/01 03:09:14;;;;;;;62.50;41.78;;;;;;;3.28;74.21;99370.94;5091887;28;20333;-72
2021/05/01 03:11:39;;;;;;;52.70;39.72;;;;;;;3.24;74.34;99371.91;5091749;28;20032;-72
2021/05/01 03:14:05;;;;;;;50.75;36.75;;;;;;;3.22;74.07;99369.38;5091080;28;20574;-72
2021/05/01 03:16:30;;;;;;;50.70;37.47;;;;;;;3.21;74.20;99372.84;5091029;28;20039;-72
2021/05/01 03:18:55;;;;;;;46.58;35.55;;;;;;;3.20;73.62;99365.09;5073115;28;20039;-73
2021/05/01 03:21:20;;;;;;;58.22;39.88;;;;;;;3.20;73.83;99367.69;5073907;28;20042;-73
2021/05/01 03:23:48;;;;;;;51.17;36.80;;;;;;;3.13;74.21;99364.38;5091000;28;20131;-73
2021/05/01 03:26:13;;;;;;;49.85;37.00;;;;;;;3.07;74.32;99367.13;5091052;28;20032;-73
2021/05/01 03:28:39;;;;;;;54.28;34.67;;;;;;;3.05;74.30;99383.69;5091480;28;20035;-72
2021/05/01 03:31:04;;;;;;;50.38;39.20;;;;;;;2.99;74.35;99374.28;5091403;28;20059;-73
2021/05/01 03:33:29;;;;;;;45.03;33.63;;;;;;;2.96;74.68;99376.97;5091451;28;20491;-73
2021/05/01 03:35:56;;;;;;;50.55;36.88;;;;;;;2.96;74.61;99369.16;5091020;28;20448;-73
2021/05/01 03:38:22;;;;;;;59.03;39.60;;;;;;;2.94;74.97;99369.19;5091605;28;20111;-76
2021/05/01 03:40:48;;;;;;;49.65;38.63;;;;;;;2.96;74.49;99371.78;5090903;28;20036;-76
2021/05/01 03:43:13;;;;;;;50.28;37.05;;;;;;;2.94;74.52;99373.56;5090795;28;20471;-75
2021/05/01 03:45:39;;;;;;;47.63;37.13;;;;;;;2.92;74.36;99372.72;5090681;28;20039;-75
2021/05/01 03:48:05;;;;;;;53.42;39.05;;;;;;;2.93;74.50;99372.72;5090654;28;20398;-74
2021/05/01 03:50:30;;;;;;;51.17;37.90;;;;;;;2.96;74.75;99380.44;5090798;28;20032;-74
2021/05/01 03:52:55;;;;;;;53.58;39.60;;;;;;;2.99;74.54;99382.94;5090923;28;20036;-74
2021/05/01 03:55:21;;;;;;;59.92;44.08;;;;;;;3.04;74.65;99389.81;5090680;28;20035;-74
2021/05/01 03:57:46;;;;;;;56.92;41.55;;;;;;;3.06;74.76;99391.47;5090749;28;20399;-74
2021/05/01 04:00:12;;;;;;;54.08;39.55;;;;;;;3.05;74.36;99392.34;5090690;28;20028;-74
2021/05/01 04:02:39;;;;;;;61.70;45.92;;;;;;;3.08;74.31;99388.84;5090293;28;20129;-74
2021/05/01 04:05:05;;;;;;;49.97;36.78;;;;;;;3.11;75.03;99384.41;5090367;28;20055;-74
2021/05/01 04:07:31;;;;;;;57.00;39.60;;;;;;;3.15;74.68;99383.44;5091051;28;20150;-72
2021/05/01 04:09:56;;;;;;;55.33;41.10;;;;;;;3.20;74.38;99385.94;5092934;28;20107;-74
2021/05/01 04:12:21;;;;;;;60.63;47.53;;;;;;;3.21;74.87;99382.41;5092842;28;20120;-73
2021/05/01 04:14:47;;;;;;;60.00;44.00;;;;;;;3.23;74.39;99381.47;5092470;28;20048;-74
2021/05/01 04:17:12;;;;;;;63.58;44.03;;;;;;;3.25;74.39;99383.19;5092752;28;21633;-75
2021/05/01 04:19:37;;;;;;;45.28;34.20;;;;;;;3.36;74.98;99374.19;5092308;28;20047;-73
2021/05/01 04:22:06;;;;;;;53.85;41.08;;;;;;;3.46;74.02;99381.78;5091423;28;20047;-75
2021/05/01 04:24:32;;;;;;;60.05;44.72;;;;;;;3.44;74.16;99384.41;5091281;28;20059;-75
2021/05/01 04:26:58;;;;;;;51.20;36.92;;;;;;;3.46;74.36;99385.22;5090901;28;20119;-75
2021/05/01 04:29:24;;;;;;;55.92;39.75;;;;;;;3.47;74.60;99383.47;5091609;28;20403;-75
2021/05/01 04:31:49;;;;;;;57.58;38.90;;;;;;;3.47;75.08;99384.34;5091386;28;20028;-76
2021/05/01 04:34:15;;;;;;;64.53;47.40;;;;;;;3.49;74.88;99387.75;5090801;28;20421;-76
2021/05/01 04:36:41;;;;;;;57.08;45.75;;;;;;;3.52;75.74;99387.69;5071753;28;20077;-76
2021/05/01 04:39:07;;;;;;;59.55;43.75;;;;;;;3.59;75.99;99390.97;5089060;28;20444;-75
2021/05/01 04:41:33;;;;;;;62.05;46.00;;;;;;;3.67;76.09;99394.22;5089720;28;20445;-75
2021/05/01 04:43:59;;;;;;;51.47;36.55;;;;;;;3.72;76.33;99389.75;5088562;28;20130;-76
2021/05/01 04:46:25;;;;;;;55.35;40.65;;;;;;;3.82;75.73;99385.13;5081576;28;20463;-75
2021/05/01 04:48:50;;;;;;;64.03;42.83;;;;;;;3.89;75.68;99389.28;5076372;28;20037;-75
2021/05/01 04:51:18;;;;;;;57.85;42.42;;;;;;;4.00;76.20;99392.41;5089452;28;20032;-74
2021/05/01 04:53:43;;;;;;;65.38;46.17;;;;;;;4.06;76.38;99393.97;5089747;28;20510;-75
2021/05/01 04:56:08;;;;;;;66.80;49.63;;;;;;;4.16;76.17;99405.00;5089234;28;20032;-74
2021/05/01 04:58:34;;;;;;;57.80;41.40;;;;;;;4.26;76.30;99409.09;5089297;28;20069;-74
2021/05/01 05:00:59;;;;;;;63.00;42.95;;;;;;;4.41;74.96;99410.38;5089736;28;20040;-75
2021/05/01 05:03:24;;;;;;;64.15;46.05;;;;;;;4.45;74.65;99409.38;5089341;28;20036;-75
2021/05/01 05:05:50;;;;;;;53.35;40.08;;;;;;;4.53;74.54;99410.00;5090119;28;20380;-75
2021/05/01 05:08:15;;;;;;;68.68;49.15;;;;;;;4.61;75.02;99410.63;5089493;28;20579;-73
2021/05/01 05:10:41;;;;;;;63.15;42.63;;;;;;;4.75;74.87;99407.59;5089681;28;20029;-75
2021/05/01 05:13:06;;;;;;;64.63;46.47;;;;;;;4.83;75.21;99418.63;5089672;28;20036;-71
2021/05/01 05:15:32;;;;;;;61.90;42.85;;;;;;;4.92;74.72;99414.84;5088994;28;20078;-72
2021/05/01 05:17:57;;;;;;;72.70;50.45;;;;;;;5.05;74.91;99415.34;5089101;28;20427;-71
2021/05/01 05:20:23;;;;;;;61.63;42.72;;;;;;;5.15;74.63;99422.81;5090015;28;20044;-71
2021/05/01 05:22:48;;;;;;;60.40;43.95;;;;;;;5.32;74.03;99417.03;5089772;28;20040;-71
2021/05/01 05:25:14;;;;;;;55.78;40.50;;;;;;;5.50;73.87;99414.69;5089362;28;20056;-70
2021/05/01 05:27:39;;;;;;;55.05;38.13;;;;;;;5.68;73.06;99408.81;5089222;28;20098;-72
2021/05/01 05:30:05;;;;;;;62.40;48.05;;;;;;;5.81;72.62;99420.56;5089340;28;20046;-71
2021/05/01 05:32:31;;;;;;;62.80;41.67;;;;;;;5.96;72.62;99413.09;5089242;28;20067;-71
2021/05/01 05:34:56;;;;;;;66.78;47.70;;;;;;;6.11;72.07;99412.53;5089153;28;20052;-74
2021/05/01 05:37:22;;;;;;;70.43;50.05;;;;;;;6.19;71.37;99418.31;5089727;28;20082;-74
2021/05/01 05:39:49;;;;;;;65.40;47.88;;;;;;;6.37;71.43;99423.78;5089524;28;20044;-72
2021/05/01 05:42:16;;;;;;;56.58;40.72;;;;;;;6.58;70.81;99419.50;5090176;28;20063;-71
2021/05/01 05:44:45;;;;;;;52.58;41.53;;;;;;;6.71;70.43;99422.50;5090937;28;20521;-72
2021/05/01 05:47:11;;;;;;;60.50;42.67;;;;;;;6.83;70.33;99422.84;5088583;28;20075;-74
2021/05/01 05:49:37;;;;;;;57.50;38.75;;;;;;;6.91;69.73;99427.78;5089328;28;20020;-72
2021/05/01 05:52:02;;;;;;;65.93;43.78;;;;;;;7.01;69.77;99423.88;5089604;28;20111;-75
2021/05/01 05:54:28;;;;;;;60.78;43.28;;;;;;;7.09;69.19;99426.22;5089371;28;20055;-72
2021/05/01 05:56:53;;;;;;;59.78;41.17;;;;;;;7.14;69.26;99421.63;5089785;28;20061;-73
2021/05/01 05:59:19;;;;;;;61.97;44.70;;;;;;;7.07;69.36;99417.56;5088900;28;20028;-73
2021/05/01 06:01:48;;;;;;;57.55;42.72;;;;;;;7.04;69.49;99410.66;5088904;28;20123;-73
2021/05/01 06:04:25;;;;;;;56.38;41.05;;;;;;;7.00;69.65;99406.47;5089367;28;20067;-72
2021/05/01 06:07:17;;;;;;;55.40;40.35;;;;;;;7.06;69.43;99403.59;5072025;28;20126;-74
2021/05/01 06:09:43;;;;;;;54.97;39.97;;;;;;;7.09;69.58;99403.47;5092843;28;20451;-74
2021/05/01 06:12:10;;;;;;;52.28;40.65;;;;;;;7.16;69.49;99403.19;5076273;28;20032;-73
2021/05/01 06:14:42;;;;;;;60.22;46.05;;;;;;;7.17;69.44;99405.75;5094497;28;20173;-73
2021/05/01 06:17:10;;;;;;;51.67;36.20;;;;;;;7.25;69.45;99410.69;5094184;28;20173;-73
2021/05/01 06:19:38;;;;;;;50.42;38.83;;;;;;;7.32;68.99;99407.75;5093259;28;20490;-75
2021/05/01 06:22:03;;;;;;;49.50;36.65;;;;;;;7.40;68.86;99406.56;5093010;28;20035;-73
2021/05/01 06:24:29;;;;;;;59.63;40.90;;;;;;;7.38;68.91;99400.53;5090305;28;20032;-73
2021/05/01 06:26:56;;;;;;;53.90;37.85;;;;;;;7.47;68.79;99405.41;5092379;28;20115;-73
2021/05/01 06:29:22;;;;;;;66.68;39.50;;;;;;;7.48;68.42;99401.84;5081741;28;20055;-72
2021/05/01 06:31:47;;;;;;;56.42;39.97;;;;;;;7.51;67.91;99405.19;5098729;28;20376;-73
2021/05/01 06:34:13;;;;;;;62.67;40.05;;;;;;;7.61;67.59;99405.66;5096239;28;20044;-71
2021/05/01 06:36:39;;;;;;;53.60;39.20;;;;;;;7.68;67.50;99407.09;5092801;28;20025;-72
2021/05/01 06:39:06;;;;;;;54.78;37.88;;;;;;;7.78;67.16;99393.56;5075508;28;20458;-74
2021/05/01 06:41:48;;;;;;;53.83;38.78;;;;;;;7.85;66.92;99398.50;5092966;28;20029;-73
2021/05/01 06:44:23;;;;;;;53.38;35.90;;;;;;;8.09;66.16;99406.19;5090585;28;20456;-74
2021/05/01 06:46:49;;;;;;;50.97;38.17;;;;;;;8.25;65.47;99412.44;5092389;28;20032;-73
2021/05/01 06:49:25;;;;;;;46.50;37.33;;;;;;;8.42;64.46;99409.09;5094046;28;20036;-72
2021/05/01 06:51:51;;;;;;;50.70;37.83;;;;;;;8.40;64.84;99412.69;5092926;28;20064;-71
2021/05/01 06:54:18;;;;;;;49.67;38.78;;;;;;;8.42;63.97;99416.97;5093930;28;20491;-73
2021/05/01 06:56:44;;;;;;;49.22;36.83;;;;;;;8.39;64.26;99411.78;5074264;28;20036;-73
2021/05/01 06:59:10;;;;;;;54.25;37.67;;;;;;;8.48;63.50;99403.53;5093053;28;20043;-72
2021/05/01 07:01:40;;;;;;;57.35;40.17;;;;;;;8.53;63.14;99403.31;5089706;28;20149;-74
2021/05/01 07:04:08;;;;;;;51.80;38.50;;;;;;;8.58;62.96;99410.03;5090881;28;20036;-74
2021/05/01 07:06:34;;;;;;;57.78;38.55;;;;;;;8.59;62.57;99408.28;5091883;28;20532;-74
2021/05/01 07:09:00;;;;;;;50.25;36.95;;;;;;;8.61;62.81;99406.41;5091403;28;20032;-73
2021/05/01 07:11:25;;;;;;;43.30;34.83;;;;;;;8.67;62.41;99408.78;5102720;28;20032;-73
2021/05/01 07:13:51;;;;;;;51.67;39.30;;;;;;;8.78;61.97;99406.47;5098623;28;20047;-72
2021/05/01 07:16:17;;;;;;;46.47;35.13;;;;;;;9.34;60.61;99404.63;5090813;28;20043;-71
2021/05/01 07:18:43;;;;;;;44.30;34.38;;;;;;;9.62;58.73;99396.19;5082706;28;20076;-74
2021/05/01 07:21:08;;;;;;;46.08;33.00;;;;;;;9.80;58.24;99397.00;5097963;28;20074;-74
2021/05/01 07:23:34;;;;;;;45.08;33.22;;;;;;;10.01;57.52;99394.16;5094316;28;20502;-73
2021/05/01 07:26:01;;;;;;;38.85;31.42;;;;;;;10.12;56.28;99402.34;5099277;28;20111;-74
2021/05/01 07:28:34;;;;;;;42.47;32.85;;;;;;;10.05;56.62;99393.06;5097824;28;20115;-73
2021/05/01 07:31:05;;;;;;;40.30;33.75;;;;;;;9.81;56.87;99398.69;5087625;28;20142;-72
2021/05/01 07:33:33;;;;;;;43.78;33.10;;;;;;;9.79;57.71;99397.91;5098479;28;20055;-72
2021/05/01 07:36:03;;;;;;;41.65;30.42;;;;;;;10.08;56.14;99385.84;5091071;28;20491;-73
2021/05/01 07:38:31;;;;;;;44.60;34.05;;;;;;;10.38;55.39;99390.41;5075865;28;20064;-71
2021/05/01 07:40:59;;;;;;;41.13;31.65;;;;;;;10.32;54.73;99388.97;5090747;28;20028;-68
2021/05/01 07:43:28;;;;;;;43.53;32.47;;;;;;;10.37;54.62;99385.25;5095835;28;20105;-71
2021/05/01 07:45:55;;;;;;;42.90;33.75;;;;;;;11.09;52.69;99387.31;5090063;28;20461;-68
2021/05/01 07:48:22;;;;;;;34.88;28.95;;;;;;;11.58;51.51;99388.84;5090178;28;20025;-67
2021/05/01 07:50:48;;;;;;;42.72;32.50;;;;;;;11.79;50.43;99392.00;5090681;28;20131;-66
2021/05/01 07:53:14;;;;;;;40.08;31.27;;;;;;;11.35;51.87;99391.06;5087559;28;20433;-67
2021/05/01 07:55:41;;;;;;;39.05;33.78;;;;;;;11.26;51.86;99386.31;5089829;28;20055;-66
2021/05/01 07:58:07;;;;;;;35.40;29.38;;;;;;;11.26;51.65;99399.53;5090216;28;20028;-69
2021/05/01 08:00:33;;;;;;;41.38;31.73;;;;;;;11.19;51.38;99400.81;5090131;28;20028;-67
2021/05/01 08:03:01;;;;;;;37.75;32.97;;;;;;;11.12;51.03;99410.88;5090630;28;20032;-67
2021/05/01 08:05:27;;;;;;;37.08;28.90;;;;;;;11.15;51.16;99407.22;5090428;28;20031;-68
2021/05/01 08:07:52;;;;;;;37.17;30.50;;;;;;;11.53;50.69;99402.31;5090480;28;20391;-68
2021/05/01 08:10:19;;;;;;;35.47;31.77;;;;;;;12.22;48.63;99408.72;5090708;28;20039;-69
2021/05/01 08:12:44;;;;;;;39.35;29.63;;;;;;;12.11;47.41;99413.84;5076353;28;20147;-46
2021/05/01 08:15:11;;;;;;;30.85;27.52;;;;;;;11.99;48.32;99412.81;5083583;28;20135;-51
2021/05/01 08:17:39;;;;;;;28.85;24.20;;;;;;;12.29;46.91;99401.28;5075374;28;20047;-49
2021/05/01 08:20:05;;;;;;;35.05;27.38;;;;;;;12.21;46.63;99414.13;5082051;28;20901;-48
2021/05/01 08:22:30;;;;;;;36.78;30.15;;;;;;;12.43;45.63;99403.06;5084545;28;20044;-46
2021/05/01 08:24:56;;;;;;;33.08;27.98;;;;;;;12.53;44.43;99412.13;5072501;28;20636;-46
2021/05/01 08:27:22;;;;;;;36.97;26.95;;;;;;;12.69;44.19;99409.34;5071417;28;20439;-50
2021/05/01 08:29:48;;;;;;;35.50;26.83;;;;;;;13.01;43.04;99404.59;5084922;28;20056;-72
2021/05/01 08:32:14;;;;;;;34.47;27.17;;;;;;;13.53;42.70;99408.25;5086842;28;20093;-78
2021/05/01 08:34:40;;;;;;;30.13;23.90;;;;;;;13.74;42.39;99390.06;5086234;28;20789;-74
2021/05/01 08:37:05;;;;;;;29.75;26.42;;;;;;;14.11;41.09;99404.25;5083648;28;20028;-73
2021/05/01 08:39:31;;;;;;;25.48;22.77;;;;;;;14.47;40.15;99407.06;5065937;28;20551;-73
2021/05/01 08:41:56;;;;;;;26.50;23.38;;;;;;;14.46;38.77;99403.56;5066517;28;20043;-74
2021/05/01 08:44:21;;;;;;;26.63;20.63;;;;;;;14.69;39.36;99407.25;5087430;28;20052;-73
2021/05/01 08:46:47;;;;;;;23.80;21.33;;;;;;;14.59;39.22;99401.78;5077952;28;20035;-73
2021/05/01 08:49:13;;;;;;;24.98;22.17;;;;;;;14.56;39.35;99403.78;5081025;28;20734;-77
2021/05/01 08:51:41;;;;;;;33.97;24.40;;;;;;;14.87;38.98;99405.06;5060657;28;20029;-74
2021/05/01 08:54:12;;;;;;;26.52;22.95;;;;;;;15.02;38.51;99401.28;5082817;28;20031;-73
2021/05/01 08:56:38;;;;;;;27.35;17.15;;;;;;;15.00;36.69;99392.59;5066228;28;20043;-75
2021/05/01 08:59:04;;;;;;;27.65;16.23;;;;;;;14.59;36.26;99400.91;5084122;28;20060;-72
2021/05/01 09:01:30;;;;;;;19.23;14.10;;;;;;;14.59;36.15;99401.78;5084217;28;20796;-75
2021/05/01 09:03:55;;;;;;;20.67;18.45;;;;;;;14.17;36.69;99409.13;5084755;28;20093;-73
2021/05/01 09:06:23;;;;;;;16.58;14.60;;;;;;;14.47;36.35;99401.75;5084076;28;20061;-72
2021/05/01 09:08:57;;;;;;;20.63;16.40;;;;;;;14.55;36.09;99408.25;5056786;28;20250;-73
2021/05/01 09:11:51;;;;;;;18.23;15.65;;;;;;;14.69;35.77;99409.91;5084454;28;20035;-73
2021/05/01 09:14:16;;;;;;;18.27;14.40;;;;;;;14.97;34.75;99398.13;5066170;28;20032;-77
2021/05/01 09:16:43;;;;;;;19.00;14.18;;;;;;;15.37;33.59;99395.16;5082369;28;20532;-71
2021/05/01 09:19:09;;;;;;;15.30;13.35;;;;;;;16.04;32.26;99399.78;5046142;28;20041;-72
2021/05/01 09:21:34;;;;;;;15.82;13.05;;;;;;;16.16;32.68;99407.78;5071905;28;20051;-73
2021/05/01 09:24:01;;;;;;;18.58;13.30;;;;;;;16.23;31.29;99401.00;5075982;28;20043;-74
2021/05/01 09:26:40;;;;;;;17.00;14.13;;;;;;;16.34;31.48;99411.63;5065085;28;20041;-76
2021/05/01 09:29:06;;;;;;;17.88;15.90;;;;;;;16.77;31.42;99408.22;5077311;28;20027;-74
2021/05/01 09:32:00;;;;;;;22.25;14.45;;;;;;;17.63;28.80;99413.63;5081772;28;20111;-74
2021/05/01 09:34:48;;;;;;;13.93;12.55;;;;;;;17.83;27.89;99407.47;5074577;28;20050;-73
2021/05/01 09:37:16;;;;;;;13.23;10.50;;;;;;;18.38;27.23;99408.00;5083715;28;20499;-73
2021/05/01 09:39:52;;;;;;;18.08;11.35;;;;;;;18.38;26.74;99410.66;5074773;28;20097;-71
2021/05/01 09:42:19;;;;;;;12.85;11.50;;;;;;;18.82;25.31;99408.59;5074663;28;20036;-71
2021/05/01 09:44:45;;;;;;;15.95;11.20;;;;;;;18.92;24.56;99408.59;5084915;28;20084;-72
2021/05/01 09:47:17;;;;;;;12.68;9.65;;;;;;;19.19;24.10;99399.91;5084843;28;20035;-75
2021/05/01 09:49:45;;;;;;;13.48;8.55;;;;;;;19.71;24.17;99392.47;5084743;28;20039;-74
2021/05/01 09:52:12;;;;;;;15.80;11.13;;;;;;;19.76;24.66;99400.03;5083912;28;20028;-73
2021/05/01 09:54:40;;;;;;;13.65;10.07;;;;;;;19.01;25.41;99402.44;5083486;28;20364;-72
2021/05/01 09:57:08;;;;;;;13.95;10.80;;;;;;;17.93;25.65;99403.03;5072852;28;20029;-73
2021/05/01 09:59:58;;;;;;;14.52;10.65;;;;;;;17.37;26.56;99406.81;5076141;28;20036;-72
2021/05/01 10:02:42;;;;;;;10.88;9.20;;;;;;;16.52;26.57;99410.19;5084409;28;20123;-72
2021/05/01 10:05:13;;;;;;;12.65;9.63;;;;;;;17.69;26.02;99407.75;5085506;28;20449;-72
2021/05/01 10:07:45;;;;;;;10.93;9.73;;;;;;;18.19;25.88;99399.94;5087109;28;20032;-72
2021/05/01 10:10:11;;;;;;;11.57;10.40;;;;;;;18.40;25.79;99403.38;5087873;28;20101;-72
2021/05/01 10:12:41;;;;;;;12.02;9.93;;;;;;;18.99;24.01;99395.53;5086373;28;20117;-73
2021/05/01 10:15:18;;;;;;;11.57;8.75;;;;;;;18.42;23.50;99396.09;5085745;28;20024;-74
2021/05/01 10:17:49;;;;;;;10.43;7.53;;;;;;;18.23;23.81;99386.16;5086703;28;20032;-74
2021/05/01 10:20:15;;;;;;;11.45;8.00;;;;;;;18.07;23.52;99383.16;5087627;28;20114;-73
2021/05/01 10:22:43;;;;;;;9.73;7.78;;;;;;;18.55;23.70;99390.50;5086575;28;20460;-74
2021/05/01 10:25:21;;;;;;;8.70;7.13;;;;;;;18.95;23.55;99380.75;5085949;28;20178;-74
2021/05/01 10:27:49;;;;;;;9.05;7.10;;;;;;;19.66;23.25;99375.94;5088015;28;20067;-73
2021/05/01 10:31:01;;;;;;;10.52;8.88;;;;;;;19.83;23.30;99374.41;5088062;28;20542;-73
2021/05/01 10:35:36;;;;;;;9.73;7.00;;;;;;;18.98;23.91;99370.66;5087410;28;20056;-74
2021/05/01 10:38:03;;;;;;;9.18;7.72;;;;;;;19.09;23.69;99367.84;5070545;28;20059;-73
2021/05/01 10:40:51;;;;;;;9.77;7.40;;;;;;;19.79;23.05;99372.16;5090696;28;20047;-76
2021/05/01 10:43:22;;;;;;;10.15;6.70;;;;;;;19.88;22.36;99369.44;5091593;28;20099;-73
2021/05/01 10:45:51;;;;;;;7.03;6.32;;;;;;;19.98;22.51;99374.78;5093548;28;20036;-75
2021/05/01 10:48:19;;;;;;;8.48;6.95;;;;;;;19.94;23.20;99370.72;5090927;28;20024;-72
2021/05/01 10:50:57;;;;;;;10.80;8.60;;;;;;;19.61;23.96;99372.88;5088756;28;20044;-74
2021/05/01 10:53:23;;;;;;;9.48;8.18;;;;;;;18.99;25.14;99367.00;5086872;28;20630;-73
2021/05/01 10:55:52;;;;;;;13.15;7.82;;;;;;;18.62;26.47;99369.44;5086456;28;20043;-73
2021/05/01 10:58:44;;;;;;;19.23;9.10;;;;;;;18.28;26.75;99368.91;5086364;28;20032;-71
2021/05/01 11:01:34;;;;;;;12.18;9.25;;;;;;;17.94;27.54;99369.19;5086548;28;20028;-74
2021/05/01 11:04:03;;;;;;;11.73;7.82;;;;;;;17.35;27.60;99362.63;5085126;28;20074;-73
2021/05/01 11:06:36;;;;;;;14.32;9.05;;;;;;;17.01;28.10;99359.28;5070212;28;20063;-73
2021/05/01 11:09:07;;;;;;;13.85;9.80;;;;;;;16.53;28.69;99355.16;5102945;28;20445;-73
2021/05/01 11:11:35;;;;;;;11.30;9.05;;;;;;;15.71;30.19;99355.41;5068953;28;20101;-73
2021/05/01 11:14:20;;;;;;;11.77;9.43;;;;;;;15.11;31.09;99353.78;5085238;28;20039;-73
2021/05/01 11:17:03;;;;;;;14.65;9.18;;;;;;;14.77;31.72;99357.13;5083461;28;20042;-71
2021/05/01 11:19:29;;;;;;;11.10;8.40;;;;;;;14.50;31.79;99359.13;5073313;28;20028;-74
2021/05/01 11:21:57;;;;;;;12.27;8.93;;;;;;;14.69;32.26;99364.78;5080899;28;20027;-73
2021/05/01 11:24:23;;;;;;;9.80;8.15;;;;;;;14.91;32.02;99361.41;5086502;28;20093;-72
2021/05/01 11:26:49;;;;;;;11.18;8.02;;;;;;;14.68;31.61;99364.91;5068243;28;20032;-73
2021/05/01 11:29:16;;;;;;;14.48;7.78;;;;;;;14.64;31.82;99366.09;5086812;28;20575;-73